Terminal Aerodrome Forecast
Issued by NWS Shreveport, LA

Home | Current Version | Previous Version | Text Only | Print | Product List | Glossary On
Versions: 1 2 3 4 5 6 7 8 9 10 11 12 13 14 15
000
FTUS44 KSHV 270540
TAFSHV
TAF
KSHV 270540Z 2706/2806 19012KT P6SM OVC015
      TEMPO 2710/2712 BKN007
     FM271200 19009KT P6SM BKN007 OVC015
     FM271500 19012G17KT P6SM BKN015
     FM272100 20011G17KT P6SM OVC050
     FM280000 18009KT P6SM BKN050=

USA.gov is the U.S. government's official web portal to all federal, state and local government web resources and services.